Time;durP1;ratioP1;P1;durP2;ratioP2;P2;SDS_P1;SDS_P2;PMS_P1;PMS_P2;Temp;Humidity;BMP_temperature;BMP_pressure;BME280_temperature;BME280_humidity;BME280_pressure;Samples;Min_cycle;Max_cycle;Signal;HPM_P1;HPM_P2
2022/04/12 00:01:11;;;;;;;5.03;2.10;;;;;;;5.62;64.91;98652.88;4934236;29;20546;-66
2022/04/12 00:03:37;;;;;;;5.25;2.20;;;;;;;5.66;64.59;98659.41;4932725;29;20086;-66
2022/04/12 00:06:04;;;;;;;5.13;2.30;;;;;;;5.62;64.93;98647.44;4934424;28;20074;-67
2022/04/12 00:08:30;;;;;;;5.00;2.30;;;;;;;5.66;64.69;98643.94;4935490;29;20059;-67
2022/04/12 00:10:57;;;;;;;5.03;2.10;;;;;;;5.66;64.60;98648.56;4936386;29;20055;-66
2022/04/12 00:13:23;;;;;;;5.60;2.20;;;;;;;5.65;64.71;98646.94;4934861;29;20051;-66
2022/04/12 00:15:49;;;;;;;4.55;2.10;;;;;;;5.63;64.74;98614.66;4934221;29;20062;-71
2022/04/12 00:21:00;;;;;;;4.93;2.30;;;;;;;5.62;64.73;98604.88;4934491;29;20603;-71
2022/04/12 00:23:26;;;;;;;5.32;2.30;;;;;;;5.68;64.57;98597.56;4934687;29;20135;-71
2022/04/12 00:25:53;;;;;;;4.85;2.25;;;;;;;5.64;64.73;98596.50;4935248;29;20080;-70
2022/04/12 00:28:20;;;;;;;4.15;2.10;;;;;;;5.66;64.85;98597.03;4935065;29;20431;-70
2022/04/12 00:30:47;;;;;;;7.20;2.30;;;;;;;5.67;64.68;98602.16;4918448;29;20448;-71
2022/04/12 00:33:13;;;;;;;5.88;2.55;;;;;;;5.72;64.43;98605.97;4931271;29;20159;-66
2022/04/12 00:35:39;;;;;;;5.10;2.40;;;;;;;5.64;64.73;98604.63;4935488;29;20055;-66
2022/04/12 00:38:17;;;;;;;6.00;2.30;;;;;;;5.63;64.56;98592.16;4935045;29;20522;-67
2022/04/12 00:40:45;;;;;;;5.55;2.53;;;;;;;5.72;64.35;98582.38;4936363;29;20508;-66
2022/04/12 00:43:12;;;;;;;4.55;2.22;;;;;;;5.68;64.48;98586.72;4917181;29;20115;-67
2022/04/12 00:45:38;;;;;;;6.28;2.53;;;;;;;5.57;64.83;98569.66;4934928;29;20420;-66
2022/04/12 00:48:04;;;;;;;4.50;2.20;;;;;;;5.72;64.49;98562.59;4932223;29;20067;-66
2022/04/12 00:50:31;;;;;;;5.43;2.30;;;;;;;5.74;64.29;98554.97;4933304;29;20676;-66
2022/04/12 00:52:58;;;;;;;4.25;2.10;;;;;;;5.67;64.42;98541.69;4932336;29;20086;-66
2022/04/12 00:55:25;;;;;;;4.72;2.00;;;;;;;5.62;64.55;98547.94;4921129;29;20155;-66
2022/04/12 00:57:51;;;;;;;5.35;2.50;;;;;;;5.62;64.42;98541.69;4934822;29;20067;-66
2022/04/12 01:00:19;;;;;;;5.33;1.93;;;;;;;5.60;64.68;98550.13;4934390;29;20063;-66
2022/04/12 01:02:45;;;;;;;4.88;2.00;;;;;;;5.61;64.63;98549.03;4933253;29;20527;-66
2022/04/12 01:05:11;;;;;;;4.25;2.00;;;;;;;5.65;64.47;98549.31;4939925;29;20544;-67
2022/04/12 01:07:38;;;;;;;4.00;1.80;;;;;;;5.61;64.54;98550.91;4934992;29;20408;-67
2022/04/12 01:10:05;;;;;;;6.05;2.10;;;;;;;5.60;64.66;98546.56;4914039;29;20079;-67
2022/04/12 01:12:38;;;;;;;5.30;2.08;;;;;;;5.68;64.64;98551.47;4934956;29;20083;-68
2022/04/12 01:15:12;;;;;;;4.70;2.00;;;;;;;5.62;64.65;98553.34;4941458;29;20083;-73
2022/04/12 01:17:39;;;;;;;6.22;1.92;;;;;;;5.63;64.69;98546.06;4932949;29;20122;-71
2022/04/12 01:20:06;;;;;;;4.75;2.28;;;;;;;5.66;64.61;98553.63;4932203;29;20071;-71
2022/04/12 01:22:34;;;;;;;5.35;1.98;;;;;;;5.65;64.32;98541.97;4934781;29;20591;-72
2022/04/12 01:25:01;;;;;;;4.55;2.03;;;;;;;5.69;64.54;98555.81;4932806;29;20122;-71
2022/04/12 01:27:30;;;;;;;4.07;2.10;;;;;;;5.65;64.53;98550.09;4931316;29;20142;-71
2022/04/12 01:29:57;;;;;;;5.40;2.20;;;;;;;5.56;64.73;98535.47;4931867;29;20067;-71
2022/04/12 01:32:25;;;;;;;10.50;2.50;;;;;;;5.53;65.10;98533.28;4932548;29;20060;-71
2022/04/12 01:34:51;;;;;;;4.20;1.90;;;;;;;5.54;65.21;98524.06;4934483;29;20066;-71
2022/04/12 01:37:17;;;;;;;6.45;2.28;;;;;;;5.65;64.87;98517.56;4932796;29;20567;-71
2022/04/12 01:39:43;;;;;;;5.47;2.20;;;;;;;5.61;64.85;98513.78;4932507;29;20051;-70
2022/04/12 01:42:10;;;;;;;5.15;2.47;;;;;;;5.59;64.93;98517.84;4934434;29;20504;-67
2022/04/12 01:44:36;;;;;;;9.05;2.75;;;;;;;5.63;64.92;98511.59;4934399;29;20067;-66
2022/04/12 01:47:03;;;;;;;5.60;2.30;;;;;;;5.61;64.83;98519.19;4930255;29;20590;-67
2022/04/12 01:49:29;;;;;;;6.77;2.37;;;;;;;5.63;64.78;98522.44;4933670;29;20429;-66
2022/04/12 01:51:56;;;;;;;4.25;2.10;;;;;;;5.65;64.70;98528.41;4933485;29;20154;-66
2022/04/12 01:54:22;;;;;;;4.57;2.08;;;;;;;5.64;64.74;98525.97;4933581;29;20064;-67
2022/04/12 01:56:48;;;;;;;5.65;2.10;;;;;;;5.64;64.98;98520.56;4932739;29;20055;-65
2022/04/12 01:59:15;;;;;;;5.07;2.25;;;;;;;5.72;64.62;98519.19;4933915;29;20104;-67
2022/04/12 02:01:41;;;;;;;5.45;2.33;;;;;;;5.65;64.79;98514.84;4932562;29;20062;-67
2022/04/12 02:04:07;;;;;;;5.68;2.30;;;;;;;5.69;64.80;98509.69;4933227;29;20559;-67
2022/04/12 02:06:34;;;;;;;5.28;2.33;;;;;;;5.63;65.03;98502.66;4932912;29;20536;-66
2022/04/12 02:09:00;;;;;;;6.75;2.45;;;;;;;5.66;64.94;98516.47;4936457;29;20083;-66
2022/04/12 02:11:27;;;;;;;8.32;2.40;;;;;;;5.72;64.91;98519.19;4933238;29;20416;-68
2022/04/12 02:13:53;;;;;;;6.75;2.50;;;;;;;5.68;64.93;98497.22;4914695;29;20436;-69
2022/04/12 02:16:20;;;;;;;6.38;2.30;;;;;;;5.71;64.87;98506.72;4932985;29;20043;-68
2022/04/12 02:18:46;;;;;;;6.82;2.53;;;;;;;5.72;64.85;98492.06;4932054;29;20059;-68
2022/04/12 02:21:12;;;;;;;6.50;2.53;;;;;;;5.71;65.09;98493.16;4933900;29;20052;-69
2022/04/12 02:23:38;;;;;;;7.72;2.70;;;;;;;5.69;65.23;98517.84;4929914;29;20509;-68
2022/04/12 02:26:04;;;;;;;8.63;2.67;;;;;;;5.67;65.16;98512.66;4940879;28;20097;-68
2022/04/12 02:28:31;;;;;;;6.40;2.40;;;;;;;5.76;65.05;98504.78;4932089;29;20075;-69
2022/04/12 02:30:57;;;;;;;9.13;3.03;;;;;;;5.74;65.08;98503.44;4919132;29;20055;-69
2022/04/12 02:33:24;;;;;;;8.55;3.10;;;;;;;5.69;65.33;98523.25;4915583;29;20056;-68
2022/04/12 02:35:50;;;;;;;6.63;2.73;;;;;;;5.76;64.76;98523.78;4940910;28;20081;-67
2022/04/12 02:38:16;;;;;;;8.82;2.90;;;;;;;5.72;65.08;98511.84;4944684;29;20070;-66
2022/04/12 02:40:42;;;;;;;8.20;2.90;;;;;;;5.71;65.21;98487.72;4936303;29;20750;-68
2022/04/12 02:43:08;;;;;;;9.52;3.28;;;;;;;5.72;65.28;98486.66;4930360;29;20076;-69
2022/04/12 02:45:34;;;;;;;9.30;2.90;;;;;;;5.83;64.96;98501.78;4941159;29;20055;-67
2022/04/12 02:48:01;;;;;;;8.80;2.75;;;;;;;5.75;65.15;98519.44;4933696;29;20500;-69
2022/04/12 02:50:28;;;;;;;8.90;2.80;;;;;;;5.70;65.44;98527.59;4936218;29;20059;-68
2022/04/12 02:52:55;;;;;;;9.10;3.10;;;;;;;5.69;65.48;98515.13;4941871;29;20066;-68
2022/04/12 02:55:21;;;;;;;9.65;3.00;;;;;;;5.77;65.37;98511.03;4940400;29;20150;-69
2022/04/12 02:57:47;;;;;;;9.10;3.20;;;;;;;5.80;65.18;98519.44;4940350;29;20135;-67
2022/04/12 03:00:14;;;;;;;8.70;3.88;;;;;;;5.76;65.37;98515.63;4932573;29;20440;-69
2022/04/12 03:02:40;;;;;;;9.18;3.20;;;;;;;5.86;65.06;98514.81;4930948;29;20047;-69
2022/04/12 03:05:08;;;;;;;8.90;3.38;;;;;;;5.85;65.16;98506.94;4901287;29;20055;-68
2022/04/12 03:07:34;;;;;;;;;;;;;;;5.86;65.24;98511.28;4932710;29;20064;-68
2022/04/12 03:10:01;;;;;;;11.17;3.60;;;;;;;5.86;65.01;98505.84;4930519;29;19931;-68
2022/04/12 03:12:26;;;;;;;10.95;3.70;;;;;;;5.83;65.16;98493.66;4936885;29;20055;-70
2022/04/12 03:14:53;;;;;;;9.38;3.78;;;;;;;5.85;65.35;98506.94;4941289;29;20062;-67
2022/04/12 03:17:20;;;;;;;8.30;3.40;;;;;;;5.82;65.40;98509.13;4927173;29;20091;-69
2022/04/12 03:19:47;;;;;;;10.10;4.00;;;;;;;5.82;65.37;98501.00;4927989;29;20059;-69
2022/04/12 03:22:13;;;;;;;10.00;4.05;;;;;;;5.82;65.46;98498.28;4940384;29;20051;-69
2022/04/12 03:24:40;;;;;;;9.77;3.83;;;;;;;5.88;65.35;98507.22;4932717;29;20055;-68
2022/04/12 03:27:06;;;;;;;10.23;3.85;;;;;;;5.84;65.51;98499.91;4932583;29;20078;-68
2022/04/12 03:29:32;;;;;;;11.23;4.30;;;;;;;5.94;65.38;98505.31;4932059;29;20453;-68
2022/04/12 03:31:59;;;;;;;11.25;4.43;;;;;;;5.89;65.36;98505.31;4940966;29;20055;-69
2022/04/12 03:34:25;;;;;;;13.20;4.28;;;;;;;5.91;65.67;98501.25;4932989;29;20409;-69
2022/04/12 03:36:51;;;;;;;9.45;3.88;;;;;;;5.92;65.71;98507.47;4935670;29;20065;-68
2022/04/12 03:39:21;;;;;;;13.68;4.43;;;;;;;5.92;65.75;98510.16;4943150;29;20138;-69
2022/04/12 03:41:48;;;;;;;11.52;4.57;;;;;;;5.94;65.64;98508.03;4916640;29;20468;-67
2022/04/12 03:44:15;;;;;;;13.45;4.70;;;;;;;6.09;65.37;98508.00;4923392;29;20055;-68
2022/04/12 03:46:41;;;;;;;12.75;4.70;;;;;;;5.99;65.79;98501.75;4936458;29;20062;-68
2022/04/12 03:49:08;;;;;;;11.48;5.10;;;;;;;5.95;65.54;98515.88;4915990;29;20095;-69
2022/04/12 03:51:35;;;;;;;11.55;4.70;;;;;;;5.97;65.99;98515.59;4941366;29;20086;-69
2022/04/12 03:54:01;;;;;;;12.43;4.85;;;;;;;5.93;66.17;98507.19;4933048;29;20052;-70
2022/04/12 03:56:28;;;;;;;11.38;5.15;;;;;;;5.91;66.15;98501.25;4907389;29;20060;-67
2022/04/12 03:58:57;;;;;;;11.48;5.28;;;;;;;5.97;66.07;98510.97;4911590;29;20533;-69
2022/04/12 04:01:24;;;;;;;16.63;6.43;;;;;;;5.96;66.17;98511.25;4939261;29;20059;-67
2022/04/12 04:03:50;;;;;;;18.30;6.20;;;;;;;5.99;66.19;98518.84;4908370;29;20047;-68
2022/04/12 04:06:16;;;;;;;12.52;6.13;;;;;;;5.91;66.55;98520.22;4942442;29;20059;-67
2022/04/12 04:08:43;;;;;;;13.05;6.32;;;;;;;5.88;66.81;98514.53;4935469;29;20147;-68
2022/04/12 04:11:09;;;;;;;15.25;7.15;;;;;;;5.95;66.56;98520.50;4934720;29;20090;-69
2022/04/12 04:13:36;;;;;;;16.65;6.80;;;;;;;5.94;66.62;98516.97;4932762;29;20472;-69
2022/04/12 04:16:03;;;;;;;;;;;;;;;6.02;66.47;98526.47;4937278;29;20064;-69
2022/04/12 04:18:29;;;;;;;12.80;6.07;;;;;;;5.88;66.76;98528.09;4935214;29;19960;-69
2022/04/12 04:20:55;;;;;;;13.60;6.40;;;;;;;5.96;66.69;98535.69;4930176;29;20055;-67
2022/04/12 04:23:22;;;;;;;18.25;7.43;;;;;;;5.93;66.76;98533.50;4915733;29;20055;-68
2022/04/12 04:25:48;;;;;;;16.25;6.70;;;;;;;5.87;67.14;98531.91;4931291;29;20473;-67
2022/04/12 04:28:21;;;;;;;14.43;6.85;;;;;;;5.92;66.88;98545.44;4915627;29;20143;-68
2022/04/12 04:30:49;;;;;;;15.20;7.10;;;;;;;5.96;66.94;98531.06;4935554;29;20560;-67
2022/04/12 04:33:17;;;;;;;13.00;6.35;;;;;;;5.96;66.96;98530.25;4933783;29;20095;-68
2022/04/12 04:35:43;;;;;;;17.65;7.07;;;;;;;5.94;67.16;98522.38;4935335;29;20123;-67
2022/04/12 04:38:09;;;;;;;15.35;6.47;;;;;;;6.05;66.78;98528.63;4938839;29;20071;-68
2022/04/12 04:40:36;;;;;;;14.43;6.60;;;;;;;6.06;66.91;98532.97;4940833;29;20059;-69
2022/04/12 04:43:02;;;;;;;17.38;7.35;;;;;;;6.15;66.63;98529.69;4943207;29;20067;-66
2022/04/12 04:45:29;;;;;;;14.00;6.88;;;;;;;6.09;66.87;98535.13;4936205;29;20134;-68
2022/04/12 04:47:57;;;;;;;14.90;7.30;;;;;;;6.13;66.84;98537.31;4940564;29;20078;-67
2022/04/12 04:50:25;;;;;;;16.90;7.03;;;;;;;6.12;66.97;98527.53;4939642;29;20397;-68
2022/04/12 04:52:52;;;;;;;15.52;7.20;;;;;;;6.15;66.84;98526.97;4934278;29;20062;-68
2022/04/12 04:55:19;;;;;;;15.85;6.57;;;;;;;6.17;66.81;98522.91;4945185;29;20079;-68
2022/04/12 04:57:47;;;;;;;17.48;7.65;;;;;;;6.10;66.94;98516.94;4934848;29;20130;-67
2022/04/12 05:00:16;;;;;;;17.95;7.88;;;;;;;6.13;67.06;98529.16;4916949;29;20052;-67
2022/04/12 05:02:44;;;;;;;17.60;8.02;;;;;;;6.14;67.03;98519.91;4919312;29;20055;-69
2022/04/12 05:05:10;;;;;;;20.40;9.02;;;;;;;6.19;67.06;98509.03;4940674;29;20110;-68
2022/04/12 05:07:38;;;;;;;21.08;8.32;;;;;;;6.29;66.60;98509.00;4934175;29;20056;-69
2022/04/12 05:10:05;;;;;;;18.60;9.40;;;;;;;6.25;66.66;98521.53;4941419;29;20063;-69
2022/04/12 05:12:31;;;;;;;19.60;8.18;;;;;;;6.27;66.62;98511.19;4938421;29;20508;-69
2022/04/12 05:14:58;;;;;;;17.55;8.75;;;;;;;6.34;66.50;98500.84;4942372;29;20469;-69
2022/04/12 05:17:25;;;;;;;15.98;7.90;;;;;;;6.32;66.43;98522.03;4938409;29;20055;-68
2022/04/12 05:19:52;;;;;;;17.97;8.67;;;;;;;6.30;66.86;98517.94;4932613;29;20047;-69
2022/04/12 05:22:18;;;;;;;17.30;8.93;;;;;;;6.25;67.02;98524.22;4933611;29;20347;-69
2022/04/12 05:24:46;;;;;;;16.30;7.80;;;;;;;6.26;66.99;98530.47;4941533;29;20150;-69
2022/04/12 05:27:12;;;;;;;24.63;9.20;;;;;;;6.23;67.20;98527.22;4932125;29;20051;-69
2022/04/12 05:29:39;;;;;;;21.15;8.48;;;;;;;6.26;67.42;98535.88;4942246;29;20059;-69
2022/04/12 05:32:06;;;;;;;20.25;9.27;;;;;;;6.29;67.27;98555.16;4938054;29;20063;-68
2022/04/12 05:34:32;;;;;;;21.48;9.05;;;;;;;6.30;67.19;98548.63;4936867;29;20189;-69
2022/04/12 05:36:58;;;;;;;20.38;8.93;;;;;;;6.36;67.18;98547.50;4930108;29;20090;-70
2022/04/12 05:39:25;;;;;;;21.17;9.57;;;;;;;6.30;67.29;98550.53;4918892;29;20418;-69
2022/04/12 05:41:52;;;;;;;25.25;9.82;;;;;;;6.33;67.25;98537.22;4936095;28;20055;-68
2022/04/12 05:44:18;;;;;;;24.65;9.60;;;;;;;6.37;67.32;98542.91;4924616;29;20070;-69
2022/04/12 05:46:44;;;;;;;27.05;10.00;;;;;;;6.20;67.49;98516.09;4938794;29;20067;-67
2022/04/12 05:49:10;;;;;;;27.10;10.82;;;;;;;6.36;67.49;98544.81;4941123;29;20556;-69
2022/04/12 05:51:36;;;;;;;23.15;10.07;;;;;;;6.38;67.48;98542.63;4937607;29;20059;-69
2022/04/12 05:54:02;;;;;;;27.92;10.10;;;;;;;6.44;67.31;98543.41;4941530;29;20060;-69
2022/04/12 05:56:29;;;;;;;22.70;10.73;;;;;;;6.52;67.23;98533.88;4937975;29;20063;-69
2022/04/12 05:58:56;;;;;;;29.77;11.32;;;;;;;6.52;67.25;98531.97;4940841;29;20052;-67
2022/04/12 06:01:22;;;;;;;29.33;12.23;;;;;;;6.54;67.18;98528.97;4941991;29;20547;-67
2022/04/12 06:03:48;;;;;;;40.63;18.80;;;;;;;6.52;67.33;98521.13;4915626;29;20051;-67
2022/04/12 06:06:14;;;;;;;33.03;15.82;;;;;;;6.57;67.21;98514.03;4936607;29;20572;-68
2022/04/12 06:08:41;;;;;;;28.35;13.40;;;;;;;6.57;67.09;98509.44;4942441;29;20110;-69
2022/04/12 06:11:07;;;;;;;27.90;13.45;;;;;;;6.60;67.06;98516.19;4941378;29;20499;-69
2022/04/12 06:13:34;;;;;;;31.00;13.55;;;;;;;6.63;67.24;98519.16;4921138;29;20059;-69
2022/04/12 06:16:00;;;;;;;26.63;12.75;;;;;;;6.63;67.15;98521.03;4943597;29;20106;-69
2022/04/12 06:18:26;;;;;;;30.05;12.98;;;;;;;6.65;67.34;98516.16;4938873;29;20154;-69
2022/04/12 06:20:53;;;;;;;34.13;13.40;;;;;;;6.64;67.50;98526.22;4938897;29;20138;-69
2022/04/12 06:23:19;;;;;;;24.80;13.13;;;;;;;6.67;67.46;98520.22;4932487;29;20121;-68
2022/04/12 06:25:45;;;;;;;31.83;13.20;;;;;;;6.74;67.38;98521.81;4928474;29;20056;-67
2022/04/12 06:28:11;;;;;;;22.73;12.07;;;;;;;6.78;67.32;98523.69;4934465;29;20063;-68
2022/04/12 06:30:37;;;;;;;23.45;12.30;;;;;;;6.76;67.22;98512.28;4932595;29;20480;-67
2022/04/12 06:33:04;;;;;;;25.67;13.07;;;;;;;6.85;67.03;98531.53;4936571;29;20059;-68
2022/04/12 06:35:31;;;;;;;25.98;12.48;;;;;;;6.85;67.34;98526.09;4936236;29;20051;-65
2022/04/12 06:37:57;;;;;;;24.42;12.57;;;;;;;6.88;67.23;98541.84;4938733;29;20146;-66
2022/04/12 06:40:24;;;;;;;25.83;12.07;;;;;;;6.92;67.07;98533.94;4930362;29;20064;-65
2022/04/12 06:42:52;;;;;;;26.13;13.00;;;;;;;6.93;66.95;98525.50;4935776;28;20142;-67
2022/04/12 06:45:18;;;;;;;33.22;13.40;;;;;;;7.00;67.05;98540.66;4933720;29;20493;-67
2022/04/12 06:47:52;;;;;;;31.08;13.00;;;;;;;6.99;67.34;98539.06;4931474;29;20158;-66
2022/04/12 06:50:20;;;;;;;27.50;13.57;;;;;;;7.02;66.96;98539.31;4929885;29;20054;-66
2022/04/12 06:52:46;;;;;;;29.08;15.88;;;;;;;7.06;67.21;98539.56;4929260;29;20052;-66
2022/04/12 06:55:12;;;;;;;30.58;14.85;;;;;;;7.12;67.05;98540.34;4931387;29;20074;-68
2022/04/12 06:57:38;;;;;;;28.92;15.45;;;;;;;7.17;66.98;98537.56;4931462;29;20114;-67
2022/04/12 07:00:07;;;;;;;38.63;17.27;;;;;;;7.18;66.94;98536.47;4930173;29;20063;-66
2022/04/12 07:02:33;;;;;;;33.22;18.23;;;;;;;7.18;66.91;98541.91;4913368;29;20191;-66
2022/04/12 07:04:59;;;;;;;34.30;19.10;;;;;;;7.20;66.88;98540.53;4925709;29;20507;-69
2022/04/12 07:07:26;;;;;;;41.38;17.60;;;;;;;7.22;66.95;98538.34;4929062;29;20468;-68
2022/04/12 07:09:52;;;;;;;31.57;15.90;;;;;;;7.28;66.84;98546.47;4916416;29;20061;-69
2022/04/12 07:12:19;;;;;;;35.47;15.45;;;;;;;7.30;66.63;98547.81;4932014;29;20051;-67
2022/04/12 07:14:45;;;;;;;31.90;15.80;;;;;;;7.30;66.80;98545.09;4932264;29;20059;-69
2022/04/12 07:17:11;;;;;;;30.13;16.13;;;;;;;7.34;66.79;98548.88;4926845;29;20063;-68
2022/04/12 07:19:38;;;;;;;28.58;15.10;;;;;;;7.31;66.98;98535.00;4930570;29;20051;-69
2022/04/12 07:22:04;;;;;;;29.88;14.90;;;;;;;7.33;66.97;98540.97;4932319;29;20060;-68
2022/04/12 07:24:31;;;;;;;28.13;14.15;;;;;;;7.36;66.90;98546.66;4932011;29;20539;-68
2022/04/12 07:26:58;;;;;;;38.13;16.25;;;;;;;7.36;66.93;98535.00;4914099;29;20056;-69
2022/04/12 07:29:24;;;;;;;41.45;15.98;;;;;;;7.48;66.82;98540.84;4914894;29;20543;-69
2022/04/12 07:31:50;;;;;;;34.58;18.60;;;;;;;7.57;66.73;98545.69;4935640;29;20060;-68
2022/04/12 07:34:16;;;;;;;31.95;17.20;;;;;;;7.56;66.40;98544.88;4933421;29;20140;-68
2022/04/12 07:37:03;;;;;;;35.10;17.75;;;;;;;7.60;66.59;98547.84;4925043;29;20123;-68
2022/04/12 07:39:29;;;;;;;42.38;20.60;;;;;;;7.66;66.66;98557.59;4932758;29;20059;-68
2022/04/12 07:41:56;;;;;;;41.78;19.35;;;;;;;7.62;66.59;98549.19;4932177;29;20052;-67
2022/04/12 07:44:23;;;;;;;43.70;20.85;;;;;;;7.69;66.78;98554.28;4926245;29;20044;-67
2022/04/12 07:46:49;;;;;;;47.15;22.13;;;;;;;7.77;66.54;98564.53;4928435;29;20051;-68
2022/04/12 07:49:15;;;;;;;50.60;19.77;;;;;;;7.80;66.63;98565.88;4938538;29;20527;-68
2022/04/12 07:51:41;;;;;;;51.42;20.30;;;;;;;7.80;66.59;98568.59;4932967;29;20233;-71
2022/04/12 07:54:08;;;;;;;45.47;20.80;;;;;;;7.77;66.75;98572.69;4913911;29;20111;-68
2022/04/12 07:56:34;;;;;;;44.70;21.03;;;;;;;7.79;66.74;98575.94;4932139;29;20536;-68
2022/04/12 07:59:02;;;;;;;44.15;20.23;;;;;;;7.83;66.70;98567.22;4931158;29;20842;-68
2022/04/12 08:01:28;;;;;;;42.65;19.90;;;;;;;7.89;66.53;98568.78;4929856;29;20548;-68
2022/04/12 08:03:54;;;;;;;39.40;21.05;;;;;;;7.91;66.59;98580.19;4931957;29;20059;-69
2022/04/12 08:06:21;;;;;;;47.53;20.42;;;;;;;7.93;66.47;98573.38;4943008;28;20055;-69
2022/04/12 08:08:48;;;;;;;42.08;21.08;;;;;;;7.93;66.51;98578.81;4936826;29;20409;-67
2022/04/12 08:11:14;;;;;;;;;;;;;;;8.02;66.49;98576.28;4935153;29;20163;-69
2022/04/12 08:13:40;;;;;;;59.80;21.38;;;;;;;8.04;66.39;98576.81;4942122;29;20032;-69
2022/04/12 08:16:08;;;;;;;43.92;20.08;;;;;;;8.09;66.10;98576.75;4918667;29;20163;-68
2022/04/12 08:18:35;;;;;;;44.35;20.95;;;;;;;8.10;66.30;98577.56;4930205;29;20155;-69
2022/04/12 08:21:02;;;;;;;43.33;19.67;;;;;;;8.04;66.25;98565.91;4933483;29;20146;-68
2022/04/12 08:23:29;;;;;;;42.25;20.98;;;;;;;8.11;66.13;98567.47;4931874;29;20091;-68
2022/04/12 08:25:55;;;;;;;43.88;20.10;;;;;;;8.18;66.07;98566.03;4934901;29;20119;-69
2022/04/12 08:28:21;;;;;;;42.38;20.10;;;;;;;8.25;65.99;98567.63;4935436;29;20162;-68
2022/04/12 08:30:47;;;;;;;51.03;20.08;;;;;;;8.34;65.48;98568.59;4934369;29;20728;-68
2022/04/12 08:33:14;;;;;;;41.33;20.20;;;;;;;8.17;65.63;98534.47;4923727;29;20051;-68
2022/04/12 08:35:40;;;;;;;41.05;20.38;;;;;;;8.38;65.93;98551.38;4933234;29;20516;-68
2022/04/12 08:38:06;;;;;;;45.03;19.83;;;;;;;8.41;65.80;98555.44;4934653;29;20052;-68
2022/04/12 08:40:33;;;;;;;47.13;20.88;;;;;;;8.45;65.94;98567.38;4935314;29;20103;-69
2022/04/12 08:42:59;;;;;;;42.25;21.10;;;;;;;8.51;65.82;98568.97;4919765;29;20119;-70
2022/04/12 08:45:26;;;;;;;43.65;21.13;;;;;;;8.59;65.72;98566.69;4939287;28;20071;-69
2022/04/12 08:47:52;;;;;;;50.47;22.35;;;;;;;8.63;65.52;98568.56;4935420;29;20051;-69
2022/04/12 08:50:20;;;;;;;51.03;20.38;;;;;;;8.74;65.52;98550.16;4938417;29;20063;-68
2022/04/12 08:52:47;;;;;;;47.70;22.30;;;;;;;8.75;65.09;98531.91;4939053;29;20052;-68
2022/04/12 08:55:13;;;;;;;51.15;23.48;;;;;;;8.90;65.25;98536.31;4935486;29;20419;-68
2022/04/12 08:57:39;;;;;;;52.20;23.15;;;;;;;8.94;65.14;98527.25;4933937;29;20101;-69
2022/04/12 09:00:07;;;;;;;49.47;21.85;;;;;;;9.07;65.11;98528.41;4937047;29;20070;-68
2022/04/12 09:02:33;;;;;;;46.90;22.42;;;;;;;9.24;64.88;98539.91;4933896;29;20062;-68
2022/04/12 09:05:00;;;;;;;47.75;23.65;;;;;;;9.27;64.72;98542.84;4934870;29;20480;-68
2022/04/12 09:07:28;;;;;;;51.33;22.65;;;;;;;9.33;64.69;98544.41;4940507;29;20067;-64
2022/04/12 09:10:05;;;;;;;50.72;23.10;;;;;;;9.54;64.37;98535.06;4932665;29;20075;-66
2022/04/12 09:12:33;;;;;;;50.60;23.33;;;;;;;9.67;64.22;98538.94;4943152;29;20083;-73
2022/04/12 09:14:59;;;;;;;43.80;21.73;;;;;;;9.82;63.95;98546.03;4943374;29;20569;-74
2022/04/12 09:17:33;;;;;;;56.85;23.25;;;;;;;9.87;63.92;98554.94;4901530;29;20047;-66
2022/04/12 09:20:10;;;;;;;55.45;23.80;;;;;;;9.90;63.81;98559.81;4922970;29;20055;-65
2022/04/12 09:22:37;;;;;;;50.85;23.05;;;;;;;9.90;63.92;98561.75;4933742;29;20125;-65
2022/04/12 09:25:06;;;;;;;43.22;22.88;;;;;;;9.91;63.89;98564.19;4922797;29;20083;-66
2022/04/12 09:27:34;;;;;;;57.78;25.25;;;;;;;9.86;64.08;98564.25;4933432;29;20052;-67
2022/04/12 09:30:03;;;;;;;;;;;;;;;9.83;64.11;98561.31;4912568;29;20052;-66
2022/04/12 09:32:36;;;;;;;48.58;23.42;;;;;;;9.87;63.75;98562.34;4940452;29;19994;-66
2022/04/12 09:35:03;;;;;;;54.67;25.00;;;;;;;9.88;63.75;98564.75;4935127;29;20479;-72
2022/04/12 09:37:32;;;;;;;63.15;23.75;;;;;;;9.88;63.77;98561.22;4916092;29;20055;-72
2022/04/12 09:40:08;;;;;;;49.60;24.73;;;;;;;9.96;63.61;98557.78;4936279;29;20155;-72
2022/04/12 09:42:39;;;;;;;57.95;25.30;;;;;;;10.00;63.38;98564.28;4930354;29;20055;-71
2022/04/12 09:45:07;;;;;;;58.85;25.00;;;;;;;10.02;63.37;98555.78;4936529;29;20062;-75
2022/04/12 09:47:34;;;;;;;58.17;26.35;;;;;;;10.10;63.43;98562.47;4934061;29;20075;-74
2022/04/12 09:50:01;;;;;;;59.80;28.47;;;;;;;10.08;63.34;98557.31;4931667;29;20431;-74
2022/04/12 09:52:27;;;;;;;62.60;28.30;;;;;;;10.05;63.96;98560.63;4929801;29;20055;-74
2022/04/12 09:54:54;;;;;;;59.47;28.73;;;;;;;10.14;63.47;98567.03;4932283;29;20322;-74
2022/04/12 09:57:22;;;;;;;58.72;28.15;;;;;;;10.15;63.54;98579.56;4930627;29;20115;-74
2022/04/12 09:59:48;;;;;;;59.92;28.48;;;;;;;10.14;63.71;98579.88;4929752;29;20488;-73
2022/04/12 10:02:15;;;;;;;56.42;28.63;;;;;;;10.20;63.45;98575.94;4928976;29;20094;-73
2022/04/12 10:04:43;;;;;;;65.85;29.15;;;;;;;10.17;63.26;98580.06;4939539;29;20508;-73
2022/04/12 10:07:11;;;;;;;64.00;31.50;;;;;;;10.12;63.41;98577.44;4926718;29;20052;-73
2022/04/12 10:09:40;;;;;;;57.83;29.40;;;;;;;10.15;63.44;98584.25;4935658;29;20855;-72
2022/04/12 10:12:08;;;;;;;65.32;30.27;;;;;;;10.23;63.42;98586.25;4948148;28;20142;-73
2022/04/12 10:14:35;;;;;;;70.50;30.40;;;;;;;10.29;63.00;98592.44;4936452;29;20071;-72
2022/04/12 10:17:02;;;;;;;62.45;31.35;;;;;;;10.24;62.81;98571.50;4931125;29;20126;-70
2022/04/12 10:19:29;;;;;;;65.40;32.15;;;;;;;10.47;62.51;98579.84;4932178;29;20524;-72
2022/04/12 10:21:55;;;;;;;76.57;31.48;;;;;;;10.57;62.40;98587.00;4915857;29;20127;-71
2022/04/12 10:24:23;;;;;;;74.63;32.03;;;;;;;10.55;62.52;98589.25;4948699;29;20055;-72
2022/04/12 10:26:51;;;;;;;68.32;34.88;;;;;;;10.55;62.32;98587.31;4926351;29;20146;-71
2022/04/12 10:29:17;;;;;;;79.32;32.75;;;;;;;10.67;62.12;98588.72;4923083;29;20123;-71
2022/04/12 10:32:00;;;;;;;79.10;33.90;;;;;;;10.70;62.20;98588.94;4932612;29;20539;-71
2022/04/12 10:34:26;;;;;;;71.38;34.75;;;;;;;10.74;61.77;98600.03;4924953;29;20151;-71
2022/04/12 10:37:14;;;;;;;72.77;34.50;;;;;;;10.70;61.78;98580.72;4929009;29;20063;-72
2022/04/12 10:39:47;;;;;;;78.97;35.40;;;;;;;10.70;62.10;98590.84;4924894;29;20072;-72
2022/04/12 10:42:17;;;;;;;74.03;35.80;;;;;;;10.73;61.92;98582.03;4929216;29;20512;-71
2022/04/12 10:44:45;;;;;;;78.88;35.05;;;;;;;10.72;61.92;98592.16;4928732;29;20119;-71
2022/04/12 10:47:28;;;;;;;91.97;35.75;;;;;;;10.66;62.11;98582.44;4926670;29;20056;-72
2022/04/12 10:49:57;;;;;;;78.82;36.63;;;;;;;10.74;61.93;98575.44;4913883;29;20075;-71
2022/04/12 10:52:43;;;;;;;94.03;37.50;;;;;;;10.80;61.77;98585.19;4932716;28;20216;-70
2022/04/12 10:55:12;;;;;;;99.53;36.83;;;;;;;10.86;61.42;98592.13;4917421;29;20104;-72
2022/04/12 10:57:38;;;;;;;82.78;37.28;;;;;;;10.82;61.87;98580.19;4934373;29;20105;-71
2022/04/12 11:00:08;;;;;;;80.88;37.55;;;;;;;10.86;61.71;98583.94;4932879;29;20063;-70
2022/04/12 11:02:43;;;;;;;89.30;35.13;;;;;;;10.89;61.73;98574.31;4933118;29;20138;-71
2022/04/12 11:05:51;;;;;;;80.93;34.50;;;;;;;10.94;61.63;98587.09;4932896;29;20773;-71
2022/04/12 11:08:48;;;;;;;89.13;35.30;;;;;;;10.97;61.43;98568.09;4934522;29;20047;-68
2022/04/12 11:11:28;;;;;;;81.55;34.63;;;;;;;10.93;61.32;98564.38;4928653;29;20417;-69
2022/04/12 11:14:16;;;;;;;84.05;34.00;;;;;;;10.94;61.88;98557.78;4935380;29;20060;-68
2022/04/12 11:16:49;;;;;;;83.97;36.95;;;;;;;11.03;61.69;98560.59;4937246;28;20088;-70
2022/04/12 11:19:20;;;;;;;85.40;35.58;;;;;;;10.98;61.71;98564.25;4937352;29;20095;-68
2022/04/12 11:22:01;;;;;;;84.82;35.20;;;;;;;11.05;61.76;98555.63;4932521;29;20058;-68
2022/04/12 11:24:27;;;;;;;79.15;34.33;;;;;;;11.13;61.41;98548.63;4940561;29;20044;-69
2022/04/12 11:27:02;;;;;;;71.68;33.47;;;;;;;11.15;61.61;98549.94;4929816;29;20055;-69
2022/04/12 11:29:29;;;;;;;78.93;33.15;;;;;;;10.96;61.78;98528.22;4930163;29;20043;-70
2022/04/12 11:31:57;;;;;;;80.50;34.95;;;;;;;11.13;61.51;98543.16;4932121;29;20060;-69
2022/04/12 11:34:26;;;;;;;75.22;31.13;;;;;;;11.28;61.22;98542.00;4927687;29;20509;-69
2022/04/12 11:36:54;;;;;;;89.40;33.80;;;;;;;11.34;61.26;98554.41;4928536;29;20115;-70